createdAt,value
2022-11-10T00:00:10.901Z,26.98
2022-11-10T00:00:40.969Z,26.95
2022-11-10T00:01:11.043Z,26.96
2022-11-10T00:01:41.117Z,26.95
2022-11-10T00:02:11.191Z,26.96
2022-11-10T00:02:41.265Z,26.95
2022-11-10T00:03:11.339Z,26.94
2022-11-10T00:03:41.457Z,26.95
2022-11-10T00:04:11.543Z,26.95
2022-11-10T00:04:41.609Z,26.98
2022-11-10T00:05:11.688Z,26.94
2022-11-10T00:05:41.763Z,26.94
2022-11-10T00:06:11.839Z,26.94
2022-11-10T00:06:42.001Z,26.95
2022-11-10T00:07:12.017Z,26.96
2022-11-10T00:07:42.101Z,26.95
2022-11-10T00:08:12.137Z,26.94
2022-11-10T00:08:42.245Z,26.95
2022-11-10T00:09:12.316Z,26.94
2022-11-10T00:09:42.342Z,26.96
2022-11-10T00:10:12.438Z,26.94
2022-11-10T00:10:42.486Z,26.92
2022-11-10T00:11:12.565Z,26.92
2022-11-10T00:11:42.628Z,26.92
2022-11-10T00:12:12.704Z,26.91
2022-11-10T00:12:42.787Z,26.92
2022-11-10T00:13:12.855Z,26.94
2022-11-10T00:13:42.932Z,26.92
2022-11-10T00:14:13.004Z,26.92
2022-11-10T00:14:43.075Z,26.94
2022-11-10T00:15:13.154Z,26.91
2022-11-10T00:15:43.227Z,26.91
2022-11-10T00:16:13.299Z,26.95
2022-11-10T00:16:43.372Z,26.91
2022-11-10T00:17:13.450Z,26.92
2022-11-10T00:17:43.516Z,26.94
2022-11-10T00:18:13.587Z,26.91
2022-11-10T00:18:43.667Z,26.92
2022-11-10T00:19:13.737Z,26.92
2022-11-10T00:19:43.815Z,26.94
2022-11-10T00:20:13.889Z,26.92
2022-11-10T00:20:43.963Z,26.91
2022-11-10T00:21:14.037Z,26.89
2022-11-10T00:21:44.110Z,26.92
2022-11-10T00:22:14.182Z,26.91
2022-11-10T00:22:44.254Z,26.94
2022-11-10T00:23:14.294Z,26.92
2022-11-10T00:23:44.335Z,26.94
2022-11-10T00:24:14.385Z,26.91
2022-11-10T00:24:44.414Z,26.91
2022-11-10T00:25:14.475Z,26.94
2022-11-10T00:25:44.478Z,26.95
2022-11-10T00:26:14.508Z,26.92
2022-11-10T00:26:44.538Z,26.92
2022-11-10T00:27:14.573Z,26.89
2022-11-10T00:27:44.601Z,26.94
2022-11-10T00:28:14.639Z,26.92
2022-11-10T00:28:44.674Z,26.89
2022-11-10T00:29:14.708Z,26.92
2022-11-10T00:29:44.744Z,26.94
2022-11-10T00:30:14.768Z,26.91
2022-11-10T00:30:46.884Z,26.92
2022-11-10T00:31:14.924Z,26.91
2022-11-10T00:31:44.947Z,26.91
2022-11-10T00:32:14.981Z,26.91
2022-11-10T00:32:45.017Z,26.91
2022-11-10T00:33:15.072Z,26.92
2022-11-10T00:33:45.161Z,26.91
2022-11-10T00:34:15.231Z,26.91
2022-11-10T00:34:45.303Z,26.89
2022-11-10T00:35:15.377Z,26.88
2022-11-10T00:35:45.448Z,26.89
2022-11-10T00:36:15.521Z,26.88
2022-11-10T00:36:45.593Z,26.91
2022-11-10T00:37:15.670Z,26.88
2022-11-10T00:37:45.736Z,26.87
2022-11-10T00:38:15.812Z,26.91
2022-11-10T00:38:45.889Z,26.92
2022-11-10T00:39:15.960Z,26.89
2022-11-10T00:39:46.033Z,26.92
2022-11-10T00:40:16.104Z,26.88
2022-11-10T00:40:46.205Z,26.88
2022-11-10T00:41:16.256Z,26.89
2022-11-10T00:41:46.330Z,26.88
2022-11-10T00:42:16.405Z,26.91
2022-11-10T00:42:46.485Z,26.88
2022-11-10T00:43:16.557Z,26.92
2022-11-10T00:43:46.634Z,26.91
2022-11-10T00:44:16.707Z,26.88
2022-11-10T00:44:46.789Z,26.91
2022-11-10T00:45:16.854Z,26.89
2022-11-10T00:45:46.932Z,26.89
2022-11-10T00:46:17.008Z,26.89
2022-11-10T00:46:47.094Z,26.89
2022-11-10T00:47:17.158Z,26.89
2022-11-10T00:47:47.230Z,26.89
2022-11-10T00:48:17.299Z,26.88
2022-11-10T00:48:47.383Z,26.91
2022-11-10T00:49:17.447Z,26.89
2022-11-10T00:49:47.522Z,26.88
2022-11-10T00:50:17.594Z,26.88
2022-11-10T00:50:47.664Z,26.88
2022-11-10T00:51:17.741Z,26.87
2022-11-10T00:51:47.817Z,26.88
2022-11-10T00:52:17.886Z,26.87
2022-11-10T00:52:47.958Z,26.87
2022-11-10T00:53:18.302Z,26.89
2022-11-10T00:53:48.266Z,26.91
2022-11-10T00:54:18.212Z,26.88
2022-11-10T00:54:48.281Z,26.88
2022-11-10T00:55:18.356Z,26.88
2022-11-10T00:55:48.431Z,26.87
2022-11-10T00:56:18.527Z,26.85
2022-11-10T00:56:48.576Z,26.88
2022-11-10T00:57:18.650Z,26.87
2022-11-10T00:57:48.728Z,26.87
2022-11-10T00:58:18.807Z,26.89
2022-11-10T00:58:48.875Z,26.88
2022-11-10T00:59:18.951Z,26.87
2022-11-10T00:59:49.021Z,26.87
2022-11-10T01:00:19.089Z,26.89
2022-11-10T01:00:49.202Z,26.88
2022-11-10T01:01:19.330Z,26.87
2022-11-10T01:01:49.392Z,26.87
2022-11-10T01:02:19.469Z,26.87
2022-11-10T01:02:49.556Z,26.88
2022-11-10T01:03:20.115Z,26.87
2022-11-10T01:03:49.631Z,26.87
2022-11-10T01:04:19.703Z,26.88
2022-11-10T01:04:49.777Z,26.88
2022-11-10T01:05:19.864Z,26.88
2022-11-10T01:05:49.932Z,26.88
2022-11-10T01:06:20.001Z,26.87
2022-11-10T01:06:50.134Z,26.87
2022-11-10T01:07:20.073Z,26.87
2022-11-10T01:07:50.140Z,26.87
2022-11-10T01:08:20.215Z,26.85
2022-11-10T01:08:50.289Z,26.88
2022-11-10T01:09:20.361Z,26.85
2022-11-10T01:09:50.440Z,26.87
2022-11-10T01:10:20.517Z,26.84
2022-11-10T01:10:50.595Z,26.87
2022-11-10T01:11:20.691Z,26.87
2022-11-10T01:11:50.740Z,26.85
2022-11-10T01:12:20.813Z,26.85
2022-11-10T01:12:50.884Z,26.87
2022-11-10T01:13:21.290Z,26.87
2022-11-10T01:13:50.992Z,26.85
2022-11-10T01:14:21.068Z,26.85
2022-11-10T01:14:51.139Z,26.85
2022-11-10T01:15:27.034Z,26.85
2022-11-10T01:15:51.301Z,26.87
2022-11-10T01:16:21.379Z,26.84
2022-11-10T01:16:51.458Z,26.87
2022-11-10T01:17:21.527Z,26.87
2022-11-10T01:17:51.594Z,26.84
2022-11-10T01:18:21.672Z,26.84
2022-11-10T01:18:51.745Z,26.82
2022-11-10T01:19:21.821Z,26.85
2022-11-10T01:19:51.891Z,26.85
2022-11-10T01:20:21.963Z,26.84
2022-11-10T01:20:52.038Z,26.84
2022-11-10T01:21:22.114Z,26.84
2022-11-10T01:21:52.185Z,26.85
2022-11-10T01:22:22.257Z,26.84
2022-11-10T01:22:52.272Z,26.85
2022-11-10T01:23:22.654Z,26.84
2022-11-10T01:23:52.364Z,26.82
2022-11-10T01:24:22.400Z,26.84
2022-11-10T01:24:52.431Z,26.84
2022-11-10T01:25:22.466Z,26.82
2022-11-10T01:25:52.512Z,26.84
2022-11-10T01:26:22.546Z,26.84
2022-11-10T01:26:52.605Z,26.82
2022-11-10T01:27:22.612Z,26.82
2022-11-10T01:27:52.644Z,26.84
2022-11-10T01:28:22.693Z,26.84
2022-11-10T01:28:52.722Z,26.84
2022-11-10T01:29:22.760Z,26.85
2022-11-10T01:29:52.797Z,26.82
2022-11-10T01:30:22.834Z,26.84
2022-11-10T01:30:52.879Z,26.82
2022-11-10T01:31:22.911Z,26.84
2022-11-10T01:31:52.945Z,26.82
2022-11-10T01:32:22.980Z,26.82
2022-11-10T01:32:53.012Z,26.84
2022-11-10T01:33:23.493Z,26.85
2022-11-10T01:33:53.112Z,26.82
2022-11-10T01:34:23.188Z,26.84
2022-11-10T01:34:53.261Z,26.81
2022-11-10T01:35:23.336Z,26.84
2022-11-10T01:35:53.416Z,26.84
2022-11-10T01:36:23.487Z,26.82
2022-11-10T01:36:53.591Z,26.84
2022-11-10T01:37:23.662Z,26.82
2022-11-10T01:37:53.736Z,26.81
2022-11-10T01:38:23.858Z,26.78
2022-11-10T01:38:53.923Z,26.81
2022-11-10T01:39:23.997Z,26.84
2022-11-10T01:39:54.175Z,26.82
2022-11-10T01:40:24.206Z,26.82
2022-11-10T01:40:54.160Z,26.82
2022-11-10T01:41:24.231Z,26.79
2022-11-10T01:41:54.311Z,26.82
2022-11-10T01:42:24.406Z,26.81
2022-11-10T01:42:54.456Z,26.82
2022-11-10T01:43:24.841Z,26.81
2022-11-10T01:43:54.561Z,26.79
2022-11-10T01:44:24.630Z,26.82
2022-11-10T01:44:54.716Z,26.79
2022-11-10T01:45:24.786Z,26.82
2022-11-10T01:45:54.862Z,26.82
2022-11-10T01:46:24.943Z,26.81
2022-11-10T01:46:55.011Z,26.78
2022-11-10T01:47:25.081Z,26.81
2022-11-10T01:47:55.161Z,26.79
2022-11-10T01:48:25.241Z,26.79
2022-11-10T01:48:55.325Z,26.79
2022-11-10T01:49:25.402Z,26.79
2022-11-10T01:49:55.482Z,26.78
2022-11-10T01:50:25.550Z,26.78
2022-11-10T01:50:55.637Z,26.79
2022-11-10T01:51:25.704Z,26.78
2022-11-10T01:51:55.772Z,26.78
2022-11-10T01:52:25.854Z,26.79
2022-11-10T01:52:55.923Z,26.79
2022-11-10T01:53:26.001Z,26.79
2022-11-10T01:53:56.077Z,26.78
2022-11-10T01:54:26.148Z,26.79
2022-11-10T01:54:56.222Z,26.77
2022-11-10T01:55:26.299Z,26.77
2022-11-10T01:55:56.376Z,26.77
2022-11-10T01:56:26.460Z,26.79
2022-11-10T01:56:56.536Z,26.79
2022-11-10T01:57:26.607Z,26.81
2022-11-10T01:57:56.704Z,26.78
2022-11-10T01:58:26.763Z,26.79
2022-11-10T01:58:56.837Z,26.81
2022-11-10T01:59:26.910Z,26.81
2022-11-10T01:59:56.989Z,26.79
2022-11-10T02:00:27.155Z,26.78
2022-11-10T02:00:57.172Z,26.79
2022-11-10T02:01:27.131Z,26.81
2022-11-10T02:01:57.204Z,26.79
2022-11-10T02:02:27.284Z,26.81
2022-11-10T02:02:57.359Z,26.78
2022-11-10T02:03:27.438Z,26.77
2022-11-10T02:03:57.514Z,26.79
2022-11-10T02:04:27.585Z,26.78
2022-11-10T02:04:57.659Z,26.77
2022-11-10T02:05:27.741Z,26.78
2022-11-10T02:05:57.810Z,26.79
2022-11-10T02:06:27.879Z,26.77
2022-11-10T02:06:58.040Z,26.78
2022-11-10T02:07:27.972Z,26.79
2022-11-10T02:07:58.091Z,26.78
2022-11-10T02:08:28.164Z,26.79
2022-11-10T02:08:58.237Z,26.77
2022-11-10T02:09:28.313Z,26.77
2022-11-10T02:09:58.386Z,26.78
2022-11-10T02:10:28.460Z,26.79
2022-11-10T02:10:58.539Z,26.79
2022-11-10T02:11:28.611Z,26.77
2022-11-10T02:11:58.678Z,26.79
2022-11-10T02:12:28.757Z,26.79
2022-11-10T02:12:58.834Z,26.78
2022-11-10T02:13:28.925Z,26.79
2022-11-10T02:13:58.982Z,26.78
2022-11-10T02:14:29.053Z,26.79
2022-11-10T02:14:59.136Z,26.78
2022-11-10T02:15:29.217Z,26.77
2022-11-10T02:15:59.299Z,26.78
2022-11-10T02:16:29.360Z,26.79
2022-11-10T02:16:59.434Z,26.81
2022-11-10T02:17:29.508Z,26.78
2022-11-10T02:17:59.584Z,26.79
2022-11-10T02:18:29.665Z,26.78
2022-11-10T02:18:59.735Z,26.77
2022-11-10T02:19:29.806Z,26.77
2022-11-10T02:20:00.863Z,26.78
2022-11-10T02:20:29.926Z,26.77
2022-11-10T02:20:59.995Z,26.75
2022-11-10T02:21:30.077Z,26.78
2022-11-10T02:22:00.157Z,26.78
2022-11-10T02:22:30.227Z,26.77
2022-11-10T02:23:00.303Z,26.78
2022-11-10T02:23:30.334Z,26.75
2022-11-10T02:24:00.366Z,26.77
2022-11-10T02:24:30.402Z,26.77
2022-11-10T02:25:00.440Z,26.78
2022-11-10T02:25:30.464Z,26.78
2022-11-10T02:26:00.502Z,26.75
2022-11-10T02:26:30.532Z,26.77
2022-11-10T02:27:00.564Z,26.75
2022-11-10T02:27:30.594Z,26.78
2022-11-10T02:28:00.630Z,26.77
2022-11-10T02:28:30.660Z,26.75
2022-11-10T02:29:00.718Z,26.75
2022-11-10T02:29:30.725Z,26.77
2022-11-10T02:30:00.770Z,26.78
2022-11-10T02:30:30.799Z,26.77
2022-11-10T02:31:00.824Z,26.75
2022-11-10T02:31:30.866Z,26.74
2022-11-10T02:32:00.897Z,26.75
2022-11-10T02:32:30.927Z,26.74
2022-11-10T02:33:00.976Z,26.75
2022-11-10T02:33:31.046Z,26.75
2022-11-10T02:34:01.118Z,26.77
2022-11-10T02:34:31.195Z,26.75
2022-11-10T02:35:01.264Z,26.74
2022-11-10T02:35:31.342Z,26.77
2022-11-10T02:36:01.417Z,26.74
2022-11-10T02:36:31.486Z,26.75
2022-11-10T02:37:01.559Z,26.74
2022-11-10T02:37:31.635Z,26.75
2022-11-10T02:38:01.724Z,26.74
2022-11-10T02:38:31.789Z,26.75
2022-11-10T02:39:01.874Z,26.74
2022-11-10T02:39:31.943Z,26.74
2022-11-10T02:40:02.059Z,26.74
2022-11-10T02:40:32.112Z,26.72
2022-11-10T02:41:02.180Z,26.74
2022-11-10T02:41:32.255Z,26.72
2022-11-10T02:42:02.330Z,26.77
2022-11-10T02:42:32.402Z,26.75
2022-11-10T02:43:02.481Z,26.74
2022-11-10T02:43:32.550Z,26.74
2022-11-10T02:44:02.629Z,26.74
2022-11-10T02:44:32.730Z,26.74
2022-11-10T02:45:02.782Z,26.74
2022-11-10T02:45:32.845Z,26.72
2022-11-10T02:46:02.918Z,26.71
2022-11-10T02:46:33.004Z,26.72
2022-11-10T02:47:03.088Z,26.72
2022-11-10T02:47:33.157Z,26.75
2022-11-10T02:48:03.258Z,26.75
2022-11-10T02:48:33.318Z,26.72
2022-11-10T02:49:03.388Z,26.72
2022-11-10T02:49:33.469Z,26.74
2022-11-10T02:50:03.542Z,26.72
2022-11-10T02:50:33.615Z,26.75
2022-11-10T02:51:03.692Z,26.74
2022-11-10T02:51:33.769Z,26.72
2022-11-10T02:52:03.840Z,26.72
2022-11-10T02:52:33.941Z,26.74
2022-11-10T02:53:04.010Z,26.74
2022-11-10T02:53:34.083Z,26.74
2022-11-10T02:54:04.162Z,26.74
2022-11-10T02:54:34.234Z,26.74
2022-11-10T02:55:04.306Z,26.72
2022-11-10T02:55:34.390Z,26.74
2022-11-10T02:56:04.458Z,26.72
2022-11-10T02:56:34.531Z,26.72
2022-11-10T02:57:04.610Z,26.72
2022-11-10T02:57:34.714Z,26.74
2022-11-10T02:58:04.785Z,26.72
2022-11-10T02:58:34.860Z,26.72
2022-11-10T02:59:04.930Z,26.72
2022-11-10T02:59:35.006Z,26.71
2022-11-10T03:00:05.115Z,26.72
2022-11-10T03:00:35.155Z,26.72
2022-11-10T03:01:05.272Z,26.71
2022-11-10T03:01:35.341Z,26.74
2022-11-10T03:02:05.265Z,26.72
2022-11-10T03:02:35.362Z,26.72
2022-11-10T03:03:05.434Z,26.72
2022-11-10T03:03:35.499Z,26.74
2022-11-10T03:04:05.582Z,26.68
2022-11-10T03:04:35.655Z,26.72
2022-11-10T03:05:05.725Z,26.70
2022-11-10T03:05:35.805Z,26.72
2022-11-10T03:06:05.870Z,26.71
2022-11-10T03:06:36.003Z,26.71
2022-11-10T03:07:06.036Z,26.71
2022-11-10T03:07:36.110Z,26.71
2022-11-10T03:08:06.179Z,26.72
2022-11-10T03:08:36.251Z,26.70
2022-11-10T03:09:06.321Z,26.71
2022-11-10T03:09:36.401Z,26.71
2022-11-10T03:10:06.480Z,26.72
2022-11-10T03:10:36.549Z,26.71
2022-11-10T03:11:06.624Z,26.72
2022-11-10T03:11:36.700Z,26.72
2022-11-10T03:12:06.766Z,26.72
2022-11-10T03:12:36.856Z,26.71
2022-11-10T03:13:06.925Z,26.71
2022-11-10T03:13:59.866Z,26.70
2022-11-10T03:14:07.075Z,26.71
2022-11-10T03:14:37.152Z,26.71
2022-11-10T03:15:07.217Z,26.72
2022-11-10T03:15:37.319Z,26.70
2022-11-10T03:16:07.372Z,26.70
2022-11-10T03:16:37.442Z,26.71
2022-11-10T03:17:07.516Z,26.71
2022-11-10T03:17:37.606Z,26.70
2022-11-10T03:18:07.672Z,26.71
2022-11-10T03:18:37.749Z,26.71
2022-11-10T03:19:07.817Z,26.71
2022-11-10T03:19:37.886Z,26.70
2022-11-10T03:20:07.956Z,26.70
2022-11-10T03:20:38.025Z,26.70
2022-11-10T03:21:08.117Z,26.70
2022-11-10T03:21:38.180Z,26.68
2022-11-10T03:22:08.243Z,26.68
2022-11-10T03:22:38.329Z,26.67
2022-11-10T03:23:08.378Z,26.70
2022-11-10T03:23:38.475Z,26.68
2022-11-10T03:24:08.483Z,26.68
2022-11-10T03:24:38.514Z,26.68
2022-11-10T03:25:08.541Z,26.68
2022-11-10T03:25:38.577Z,26.68
2022-11-10T03:26:08.610Z,26.70
2022-11-10T03:26:38.639Z,26.70
2022-11-10T03:27:08.672Z,26.70
2022-11-10T03:27:38.741Z,26.70
2022-11-10T03:28:08.770Z,26.68
2022-11-10T03:28:38.802Z,26.67
2022-11-10T03:29:08.832Z,26.68
2022-11-10T03:29:38.867Z,26.70
2022-11-10T03:30:08.901Z,26.68
2022-11-10T03:30:38.930Z,26.67
2022-11-10T03:31:08.993Z,26.65
2022-11-10T03:31:38.999Z,26.68
2022-11-10T03:32:09.032Z,26.68
2022-11-10T03:32:39.092Z,26.68
2022-11-10T03:33:09.148Z,26.70
2022-11-10T03:33:39.218Z,26.67
2022-11-10T03:34:09.292Z,26.67
2022-11-10T03:34:39.368Z,26.70
2022-11-10T03:35:09.438Z,26.70
2022-11-10T03:35:39.512Z,26.67
2022-11-10T03:36:09.581Z,26.68
2022-11-10T03:36:39.661Z,26.68
2022-11-10T03:37:09.736Z,26.68
2022-11-10T03:37:39.826Z,26.67
2022-11-10T03:38:09.896Z,26.68
2022-11-10T03:38:39.973Z,26.68
2022-11-10T03:39:10.047Z,26.67
2022-11-10T03:39:40.117Z,26.68
2022-11-10T03:40:10.187Z,26.67
2022-11-10T03:41:11.992Z,26.65
2022-11-10T03:41:19.791Z,26.65
2022-11-10T03:41:40.430Z,26.65
2022-11-10T03:42:10.507Z,26.64
2022-11-10T03:42:40.588Z,26.67
2022-11-10T03:43:10.664Z,26.65
2022-11-10T03:43:40.744Z,26.65
2022-11-10T03:44:10.811Z,26.65
2022-11-10T03:44:40.913Z,26.67
2022-11-10T03:45:10.966Z,26.65
2022-11-10T03:45:41.037Z,26.65
2022-11-10T03:46:11.108Z,26.65
2022-11-10T03:46:43.538Z,26.64
2022-11-10T03:47:11.179Z,26.67
2022-11-10T03:47:41.267Z,26.62
2022-11-10T03:48:11.347Z,26.65
2022-11-10T03:48:41.421Z,26.64
2022-11-10T03:49:11.489Z,26.64
2022-11-10T03:49:41.569Z,26.65
2022-11-10T03:50:11.641Z,26.65
2022-11-10T03:50:41.717Z,26.64
2022-11-10T03:51:11.786Z,26.64
2022-11-10T03:51:41.865Z,26.64
2022-11-10T03:52:11.933Z,26.65
2022-11-10T03:52:42.019Z,26.68
2022-11-10T03:53:12.096Z,26.67
2022-11-10T03:53:42.169Z,26.67
2022-11-10T03:54:12.252Z,26.68
2022-11-10T03:54:42.334Z,26.68
2022-11-10T03:55:12.404Z,26.67
2022-11-10T03:55:42.474Z,26.68
2022-11-10T03:56:12.545Z,26.70
2022-11-10T03:56:42.617Z,26.71
2022-11-10T03:57:12.690Z,26.70
2022-11-10T03:57:42.802Z,26.71
2022-11-10T03:58:12.878Z,26.71
2022-11-10T03:58:42.957Z,26.71
2022-11-10T03:59:13.025Z,26.72
2022-11-10T03:59:43.102Z,26.72
2022-11-10T04:00:13.179Z,26.75
2022-11-10T04:00:43.255Z,26.75
2022-11-10T04:01:13.329Z,26.72
2022-11-10T04:01:43.488Z,26.71
2022-11-10T04:02:13.425Z,26.74
2022-11-10T04:02:43.512Z,26.70
2022-11-10T04:03:13.585Z,26.75
2022-11-10T04:03:47.454Z,26.74
2022-11-10T04:04:13.737Z,26.74
2022-11-10T04:04:43.812Z,26.74
2022-11-10T04:05:13.892Z,26.71
2022-11-10T04:05:43.961Z,26.74
2022-11-10T04:06:14.039Z,26.72
2022-11-10T04:06:44.158Z,26.72
2022-11-10T04:07:14.173Z,26.74
2022-11-10T04:07:44.243Z,26.74
2022-11-10T04:08:14.310Z,26.74
2022-11-10T04:08:44.393Z,26.74
2022-11-10T04:09:14.478Z,26.74
2022-11-10T04:09:44.551Z,26.75
2022-11-10T04:10:14.625Z,26.74
2022-11-10T04:10:44.699Z,26.75
2022-11-10T04:11:14.772Z,26.77
2022-11-10T04:11:44.849Z,26.75
2022-11-10T04:12:14.929Z,26.74
2022-11-10T04:12:45.010Z,26.75
2022-11-10T04:13:15.087Z,26.78
2022-11-10T04:13:45.177Z,26.75
2022-11-10T04:14:15.252Z,26.77
2022-11-10T04:14:45.323Z,26.77
2022-11-10T04:15:15.399Z,26.75
2022-11-10T04:15:45.468Z,26.78
2022-11-10T04:16:15.545Z,26.79
2022-11-10T04:16:45.620Z,26.79
2022-11-10T04:17:15.713Z,26.78
2022-11-10T04:17:45.787Z,26.78
2022-11-10T04:18:15.859Z,26.81
2022-11-10T04:18:45.929Z,26.78
2022-11-10T04:19:16.002Z,26.78
2022-11-10T04:19:46.077Z,26.78
2022-11-10T04:20:16.148Z,26.81
2022-11-10T04:20:46.227Z,26.79
2022-11-10T04:21:16.295Z,26.84
2022-11-10T04:21:46.374Z,26.81
2022-11-10T04:22:16.440Z,26.79
2022-11-10T04:22:46.538Z,26.84
2022-11-10T04:23:16.563Z,26.82
2022-11-10T04:23:46.604Z,26.84
2022-11-10T04:24:16.644Z,26.84
2022-11-10T04:24:46.672Z,26.82
2022-11-10T04:25:16.710Z,26.85
2022-11-10T04:25:46.734Z,26.84
2022-11-10T04:26:16.777Z,26.84
2022-11-10T04:26:46.811Z,26.84
2022-11-10T04:27:16.834Z,26.84
2022-11-10T04:27:46.882Z,26.85
2022-11-10T04:28:16.912Z,26.84
2022-11-10T04:28:46.945Z,26.84
2022-11-10T04:29:16.980Z,26.84
2022-11-10T04:29:47.012Z,26.85
2022-11-10T04:30:17.048Z,26.85
2022-11-10T04:30:47.086Z,26.87
2022-11-10T04:31:17.113Z,26.84
2022-11-10T04:31:47.143Z,26.87
2022-11-10T04:32:17.173Z,26.88
2022-11-10T04:32:47.252Z,26.84
2022-11-10T04:33:17.291Z,26.88
2022-11-10T04:33:47.368Z,26.85
2022-11-10T04:34:17.435Z,26.87
2022-11-10T04:34:47.510Z,26.88
2022-11-10T04:35:17.579Z,26.88
2022-11-10T04:35:47.655Z,26.88
2022-11-10T04:36:17.739Z,26.88
2022-11-10T04:36:47.816Z,26.89
2022-11-10T04:37:17.901Z,26.91
2022-11-10T04:37:48.013Z,26.88
2022-11-10T04:38:18.083Z,26.89
2022-11-10T04:38:48.170Z,26.89
2022-11-10T04:39:18.246Z,26.91
2022-11-10T04:39:48.317Z,26.91
2022-11-10T04:40:18.390Z,26.95
2022-11-10T04:40:48.463Z,26.94
2022-11-10T04:41:18.533Z,26.92
2022-11-10T04:41:48.606Z,26.95
2022-11-10T04:42:18.685Z,26.94
2022-11-10T04:42:48.768Z,26.95
2022-11-10T04:43:18.987Z,26.98
2022-11-10T04:43:48.852Z,26.98
2022-11-10T04:44:18.931Z,26.98
2022-11-10T04:44:49.000Z,26.98
2022-11-10T04:45:19.077Z,26.98
2022-11-10T04:45:49.145Z,26.95
2022-11-10T04:46:19.220Z,26.96
2022-11-10T04:46:49.295Z,26.92
2022-11-10T04:47:19.366Z,26.98
2022-11-10T04:47:49.488Z,26.96
2022-11-10T04:48:19.535Z,26.95
2022-11-10T04:48:49.639Z,26.98
2022-11-10T04:49:19.695Z,27.01
2022-11-10T04:49:49.776Z,27.02
2022-11-10T04:50:19.842Z,27.05
2022-11-10T04:50:49.910Z,27.05
2022-11-10T04:51:20.075Z,27.03
2022-11-10T04:51:50.108Z,27.06
2022-11-10T04:52:20.049Z,27.03
2022-11-10T04:52:50.136Z,27.05
2022-11-10T04:53:20.632Z,27.09
2022-11-10T04:53:50.207Z,27.10
2022-11-10T04:54:20.281Z,27.10
2022-11-10T04:54:50.350Z,27.12
2022-11-10T04:55:20.431Z,27.13
2022-11-10T04:55:50.499Z,27.12
2022-11-10T04:56:20.570Z,27.13
2022-11-10T04:56:50.645Z,27.16
2022-11-10T04:57:20.722Z,27.13
2022-11-10T04:57:50.823Z,27.16
2022-11-10T04:58:20.898Z,27.16
2022-11-10T04:58:50.968Z,27.19
2022-11-10T04:59:21.046Z,27.20
2022-11-10T04:59:51.113Z,27.20
2022-11-10T05:00:21.188Z,27.20
2022-11-10T05:00:51.292Z,27.22
2022-11-10T05:01:21.461Z,27.24
2022-11-10T05:01:51.404Z,27.23
2022-11-10T05:02:21.494Z,27.23
2022-11-10T05:02:51.589Z,27.23
2022-11-10T05:03:22.096Z,27.24
2022-11-10T05:03:51.672Z,27.27
2022-11-10T05:04:21.745Z,27.27
2022-11-10T05:04:51.823Z,27.26
2022-11-10T05:05:21.889Z,27.26
2022-11-10T05:05:51.964Z,27.26
2022-11-10T05:06:22.039Z,27.27
2022-11-10T05:06:52.169Z,27.30
2022-11-10T05:07:22.100Z,27.30
2022-11-10T05:07:52.189Z,27.29
2022-11-10T05:08:22.262Z,27.32
2022-11-10T05:08:52.334Z,27.30
2022-11-10T05:09:22.404Z,27.29
2022-11-10T05:09:52.475Z,27.32
2022-11-10T05:10:22.549Z,27.34
2022-11-10T05:10:52.621Z,27.33
2022-11-10T05:11:22.694Z,27.34
2022-11-10T05:11:52.764Z,27.34
2022-11-10T05:12:22.852Z,27.33
2022-11-10T05:12:52.924Z,27.34
2022-11-10T05:13:23.283Z,27.34
2022-11-10T05:13:53.094Z,27.36
2022-11-10T05:14:23.176Z,27.36
2022-11-10T05:14:53.252Z,27.37
2022-11-10T05:15:23.325Z,27.34
2022-11-10T05:15:53.393Z,27.36
2022-11-10T05:16:23.467Z,27.36
2022-11-10T05:16:53.532Z,27.37
2022-11-10T05:17:23.638Z,27.36
2022-11-10T05:17:53.709Z,27.37
2022-11-10T05:18:23.782Z,27.37
2022-11-10T05:18:53.878Z,27.36
2022-11-10T05:19:23.924Z,27.36
2022-11-10T05:19:54.011Z,27.37
2022-11-10T05:20:24.066Z,27.36
2022-11-10T05:20:54.136Z,27.40
2022-11-10T05:21:24.207Z,27.39
2022-11-10T05:21:54.288Z,27.37
2022-11-10T05:22:24.363Z,27.36
2022-11-10T05:22:54.428Z,27.39
2022-11-10T05:23:24.736Z,27.39
2022-11-10T05:23:54.534Z,27.39
2022-11-10T05:24:24.562Z,27.41
2022-11-10T05:24:54.596Z,27.40
2022-11-10T05:25:24.629Z,27.40
2022-11-10T05:25:54.657Z,27.43
2022-11-10T05:26:24.689Z,27.43
2022-11-10T05:26:54.732Z,27.43
2022-11-10T05:27:24.773Z,27.43
2022-11-10T05:27:54.805Z,27.43
2022-11-10T05:28:24.846Z,27.44
2022-11-10T05:28:54.866Z,27.44
2022-11-10T05:29:24.901Z,27.43
2022-11-10T05:29:54.932Z,27.43
2022-11-10T05:30:24.969Z,27.41
2022-11-10T05:30:54.997Z,27.43
2022-11-10T05:31:25.050Z,27.44
2022-11-10T05:31:55.100Z,27.44
2022-11-10T05:32:25.130Z,27.44
2022-11-10T05:32:55.170Z,27.44
2022-11-10T05:33:25.706Z,27.46
2022-11-10T05:33:55.373Z,27.44
2022-11-10T05:34:25.471Z,27.44
2022-11-10T05:34:55.538Z,27.47
2022-11-10T05:35:25.620Z,27.47
2022-11-10T05:35:55.702Z,27.49
2022-11-10T05:36:25.778Z,27.47
2022-11-10T05:36:55.882Z,27.49
2022-11-10T05:37:25.969Z,27.47
2022-11-10T05:37:56.048Z,27.49
2022-11-10T05:38:26.125Z,27.53
2022-11-10T05:38:56.196Z,27.51
2022-11-10T05:39:26.266Z,27.51
2022-11-10T05:39:56.342Z,27.53
2022-11-10T05:40:26.412Z,27.54
2022-11-10T05:40:56.476Z,27.54
2022-11-10T05:41:26.552Z,27.57
2022-11-10T05:41:56.645Z,27.54
2022-11-10T05:42:26.714Z,27.58
2022-11-10T05:42:56.809Z,27.58
2022-11-10T05:43:26.990Z,27.60
2022-11-10T05:43:56.944Z,27.58
2022-11-10T05:44:27.024Z,27.61
2022-11-10T05:44:57.091Z,27.61
2022-11-10T05:45:27.168Z,27.61
2022-11-10T05:45:57.232Z,27.62
2022-11-10T05:46:27.303Z,27.62
2022-11-10T05:46:57.378Z,27.64
2022-11-10T05:47:27.456Z,27.64
2022-11-10T05:47:57.536Z,27.65
2022-11-10T05:48:27.599Z,27.65
2022-11-10T05:48:57.700Z,27.65
2022-11-10T05:49:27.754Z,27.64
2022-11-10T05:49:57.828Z,27.65
2022-11-10T05:50:27.905Z,27.64
2022-11-10T05:50:57.973Z,27.65
2022-11-10T05:51:28.049Z,27.65
2022-11-10T05:51:58.123Z,27.64
2022-11-10T05:52:28.191Z,27.64
2022-11-10T05:52:58.272Z,27.65
2022-11-10T05:53:28.343Z,27.65
2022-11-10T05:53:58.412Z,27.64
2022-11-10T05:54:28.482Z,27.64
2022-11-10T05:54:58.559Z,27.62
2022-11-10T05:55:28.632Z,27.61
2022-11-10T05:55:58.713Z,27.61
2022-11-10T05:56:28.779Z,27.60
2022-11-10T05:56:58.856Z,27.61
2022-11-10T05:57:28.940Z,27.61
2022-11-10T05:57:59.011Z,27.61
2022-11-10T05:58:29.081Z,27.61
2022-11-10T05:58:59.154Z,27.62
2022-11-10T05:59:29.229Z,27.61
2022-11-10T05:59:59.295Z,27.61
2022-11-10T06:00:29.376Z,27.62
2022-11-10T06:00:59.452Z,27.61
2022-11-10T06:01:29.523Z,27.61
2022-11-10T06:01:59.592Z,27.62
2022-11-10T06:02:29.665Z,27.61
2022-11-10T06:02:59.742Z,27.62
2022-11-10T06:03:29.885Z,27.64
2022-11-10T06:04:00.013Z,27.61
2022-11-10T06:04:29.987Z,27.60
2022-11-10T06:05:00.054Z,27.62
2022-11-10T06:05:31.481Z,27.62
2022-11-10T06:06:00.148Z,27.61
2022-11-10T06:06:30.335Z,27.62
2022-11-10T06:07:00.344Z,27.61
2022-11-10T06:07:30.283Z,27.61
2022-11-10T06:08:00.599Z,27.65
2022-11-10T06:08:30.417Z,27.62
2022-11-10T06:09:00.491Z,27.64
2022-11-10T06:09:30.565Z,27.62
2022-11-10T06:10:00.635Z,27.64
2022-11-10T06:10:31.058Z,27.64
2022-11-10T06:11:00.742Z,27.67
2022-11-10T06:11:30.812Z,27.68
2022-11-10T06:12:00.888Z,27.68
2022-11-10T06:12:30.960Z,27.67
2022-11-10T06:13:01.029Z,27.64
2022-11-10T06:13:31.108Z,27.65
2022-11-10T06:14:01.181Z,27.64
2022-11-10T06:14:31.246Z,27.62
2022-11-10T06:15:01.321Z,27.64
2022-11-10T06:15:31.398Z,27.62
2022-11-10T06:16:01.462Z,27.62
2022-11-10T06:16:31.539Z,27.60
2022-11-10T06:17:01.602Z,27.58
2022-11-10T06:17:31.675Z,27.60
2022-11-10T06:18:01.757Z,27.57
2022-11-10T06:18:31.828Z,27.58
2022-11-10T06:19:01.892Z,27.58
2022-11-10T06:19:31.992Z,27.54
2022-11-10T06:20:02.058Z,27.56
2022-11-10T06:20:32.108Z,27.53
2022-11-10T06:21:02.185Z,27.54
2022-11-10T06:21:32.256Z,27.51
2022-11-10T06:22:07.369Z,27.51
2022-11-10T06:22:32.407Z,27.47
2022-11-10T06:23:02.470Z,27.47
2022-11-10T06:23:32.492Z,27.46
2022-11-10T06:24:02.524Z,27.46
2022-11-10T06:24:32.556Z,27.41
2022-11-10T06:25:02.589Z,27.40
2022-11-10T06:25:32.638Z,27.39
2022-11-10T06:26:02.697Z,27.37
2022-11-10T06:26:32.721Z,27.33
2022-11-10T06:27:02.750Z,27.39